Time;durP1;ratioP1;P1;durP2;ratioP2;P2;SDS_P1;SDS_P2;PMS_P1;PMS_P2;Temp;Humidity;BMP_temperature;BMP_pressure;BME280_temperature;BME280_humidity;BME280_pressure;Samples;Min_cycle;Max_cycle;Signal;HPM_P1;HPM_P2
2022/01/22 00:02:33;;;;;;;27.77;5.10;;;6.40;99.90;;;;;;4943354;28;20048;-95
2022/01/22 00:05:03;;;;;;;20.98;4.90;;;6.50;99.90;;;;;;4925017;28;20091;-93
2022/01/22 00:07:43;;;;;;;25.10;5.00;;;6.50;99.90;;;;;;4932374;28;20213;-93
2022/01/22 00:10:19;;;;;;;29.63;4.95;;;6.50;99.90;;;;;;4933347;28;20045;-95
2022/01/22 00:15:22;;;;;;;23.85;4.50;;;6.50;99.90;;;;;;4943104;28;20053;-94
2022/01/22 00:17:59;;;;;;;25.77;5.00;;;6.60;99.90;;;;;;4954015;28;20046;-95
2022/01/22 00:20:38;;;;;;;21.95;4.88;;;6.50;99.90;;;;;;4939080;28;20076;-95
2022/01/22 00:23:16;;;;;;;20.30;4.90;;;6.50;99.90;;;;;;4940673;28;20049;-94
2022/01/22 00:25:45;;;;;;;19.33;4.60;;;6.50;99.90;;;;;;4909300;28;20137;-94
2022/01/22 00:28:11;;;;;;;24.48;5.20;;;6.50;99.90;;;;;;4921979;28;20921;-95
2022/01/22 00:30:42;;;;;;;24.17;5.28;;;6.50;99.90;;;;;;4923657;28;20050;-94
2022/01/22 00:33:32;;;;;;;23.15;4.63;;;6.50;99.90;;;;;;4920586;28;20046;-95
2022/01/22 00:36:09;;;;;;;19.80;4.70;;;6.60;99.90;;;;;;4948363;28;20701;-95
2022/01/22 00:38:41;;;;;;;19.80;4.05;;;6.60;99.90;;;;;;4922840;28;20038;-95
2022/01/22 00:41:28;;;;;;;22.30;4.55;;;6.50;99.90;;;;;;4933139;28;20125;-95
2022/01/22 00:43:54;;;;;;;17.10;4.22;;;6.60;99.90;;;;;;4923754;28;20046;-95
2022/01/22 00:46:27;;;;;;;20.75;4.45;;;6.50;99.90;;;;;;4926467;28;20816;-94
2022/01/22 00:48:58;;;;;;;19.90;4.47;;;6.60;99.90;;;;;;4925933;28;20262;-93
2022/01/22 00:51:24;;;;;;;18.13;4.10;;;6.60;99.90;;;;;;4919354;28;20364;-93
2022/01/22 00:53:59;;;;;;;19.25;4.82;;;6.60;99.90;;;;;;4925318;28;20073;-94
2022/01/22 00:56:30;;;;;;;18.25;4.03;;;6.60;99.90;;;;;;4930786;28;20092;-95
2022/01/22 00:58:59;;;;;;;15.35;3.92;;;6.60;99.90;;;;;;4937169;28;20041;-94
2022/01/22 01:01:28;;;;;;;19.48;4.20;;;6.60;99.90;;;;;;4953030;28;20124;-94
2022/01/22 01:04:02;;;;;;;19.20;4.18;;;6.60;99.90;;;;;;4946566;28;20084;-94
2022/01/22 01:06:34;;;;;;;19.23;3.90;;;6.60;99.90;;;;;;4924491;28;20046;-94
2022/01/22 01:09:03;;;;;;;16.13;3.75;;;6.60;99.90;;;;;;4931118;28;20118;-94
2022/01/22 01:11:34;;;;;;;21.13;4.55;;;6.70;99.90;;;;;;4934697;28;20569;-92
2022/01/22 01:14:05;;;;;;;23.35;4.18;;;6.70;99.90;;;;;;4923341;28;20871;-95
2022/01/22 01:33:23;;;;;;;19.48;4.00;;;6.70;99.90;;;;;;4957414;28;20500;-95
2022/01/22 01:35:49;;;;;;;19.08;3.72;;;6.70;99.90;;;;;;4957408;28;20041;-94
2022/01/22 01:38:26;;;;;;;20.40;4.13;;;6.70;99.90;;;;;;4942667;28;20041;-96
2022/01/22 01:41:07;;;;;;;19.45;3.90;;;6.70;99.90;;;;;;4934664;28;20071;-95
2022/01/22 01:43:38;;;;;;;25.92;4.20;;;6.80;99.90;;;;;;4939539;28;20635;-93
2022/01/22 01:46:10;;;;;;;19.33;3.90;;;6.80;99.90;;;;;;4922592;28;20033;-95
2022/01/22 01:48:42;;;;;;;18.90;4.10;;;6.80;99.90;;;;;;4939366;28;20041;-95
2022/01/22 01:51:11;;;;;;;24.42;4.18;;;6.80;99.90;;;;;;4960062;28;20045;-95
2022/01/22 01:59:14;;;;;;;21.27;4.40;;;6.70;99.90;;;;;;4955791;28;20441;-95
2022/01/22 02:01:51;;;;;;;19.88;3.65;;;6.80;99.90;;;;;;4947017;28;20056;-93
2022/01/22 02:04:17;;;;;;;18.40;3.85;;;6.80;99.90;;;;;;4932712;28;20045;-94
2022/01/22 02:06:43;;;;;;;17.80;3.95;;;6.70;99.90;;;;;;4936463;28;20342;-95
2022/01/22 02:09:12;;;;;;;19.00;4.45;;;6.80;99.90;;;;;;4937112;28;20056;-93
2022/01/22 02:11:41;;;;;;;21.90;4.45;;;6.70;99.90;;;;;;4962016;28;20045;-93
2022/01/22 02:23:30;;;;;;;17.20;4.07;;;6.90;99.90;;;;;;4942045;28;20048;-93
2022/01/22 02:25:38;;;;;;;21.20;4.32;;;6.80;99.90;;;;;;4950210;28;20123;-92
2022/01/22 02:28:13;;;;;;;22.35;4.10;;;6.80;99.90;;;;;;4945740;28;20083;-92
2022/01/22 02:36:40;;;;;;;17.63;4.07;;;6.80;99.90;;;;;;4957356;28;20091;-93
2022/01/22 02:39:37;;;;;;;19.48;4.18;;;6.90;99.90;;;;;;4955656;28;20057;-94
2022/01/22 02:42:04;;;;;;;18.63;4.35;;;6.80;99.90;;;;;;4951138;28;20041;-94
2022/01/22 02:44:52;;;;;;;20.02;4.00;;;6.90;99.90;;;;;;4945655;28;20465;-95
2022/01/22 02:47:30;;;;;;;16.27;4.30;;;6.90;99.90;;;;;;4941141;28;22064;-94
2022/01/22 02:49:56;;;;;;;17.80;3.80;;;6.80;99.90;;;;;;4943373;28;20037;-94
2022/01/22 02:52:37;;;;;;;17.23;3.60;;;6.90;99.90;;;;;;4930372;28;20084;-94
2022/01/22 02:58:24;;;;;;;15.52;3.90;;;6.90;99.90;;;;;;4951894;28;20049;-93
2022/01/22 03:00:52;;;;;;;14.90;3.47;;;6.90;99.90;;;;;;4939160;28;20401;-94
2022/01/22 03:03:26;;;;;;;16.08;3.80;;;7.00;99.90;;;;;;4956511;28;20129;-93
2022/01/22 03:06:02;;;;;;;;;;;;;;;;;;;;;
2022/01/22 03:20:38;;;;;;;16.10;3.30;;;7.00;99.90;;;;;;4959244;28;20950;-95
2022/01/22 03:23:11;;;;;;;17.85;3.30;;;7.00;99.90;;;;;;4943924;28;20050;-96
2022/01/22 03:31:41;;;;;;;13.32;2.80;;;7.00;99.90;;;;;;4946639;28;20137;-94
2022/01/22 03:34:28;;;;;;;11.00;2.60;;;6.90;99.90;;;;;;4970111;28;20517;-93
2022/01/22 03:37:04;;;;;;;12.93;2.65;;;6.90;99.90;;;;;;4924116;28;20043;-94
2022/01/22 03:39:35;;;;;;;9.07;2.33;;;7.00;99.90;;;;;;4950822;28;20064;-96
2022/01/22 03:42:13;;;;;;;10.82;2.70;;;7.00;99.90;;;;;;4902655;28;20809;-96
2022/01/22 03:44:39;;;;;;;10.38;3.13;;;7.00;99.90;;;;;;4937867;28;20352;-94
2022/01/22 03:47:50;;;;;;;12.30;2.85;;;7.00;99.90;;;;;;4927065;28;20074;-95
2022/01/22 03:50:39;;;;;;;11.55;2.97;;;7.00;99.90;;;;;;4930029;28;20451;-94
2022/01/22 03:53:36;;;;;;;9.18;2.58;;;7.00;99.90;;;;;;4909321;28;20065;-95
2022/01/22 03:57:04;;;;;;;10.02;3.15;;;7.00;99.90;;;;;;4891386;28;20054;-96
2022/01/22 03:59:26;;;;;;;10.63;3.00;;;7.00;99.90;;;;;;4942533;28;20140;-96
2022/01/22 04:02:25;;;;;;;9.38;2.80;;;7.00;99.90;;;;;;4940936;28;20121;-96
2022/01/22 04:05:01;;;;;;;10.77;3.10;;;7.00;99.90;;;;;;4959284;28;20081;-94
2022/01/22 04:08:05;;;;;;;13.20;2.85;;;7.00;99.90;;;;;;4928922;28;20042;-93
2022/01/22 04:10:38;;;;;;;12.35;2.97;;;6.90;99.90;;;;;;4941835;28;20085;-95
2022/01/22 04:13:13;;;;;;;11.25;2.60;;;7.00;99.90;;;;;;4930386;28;20053;-95
2022/01/22 04:15:46;;;;;;;11.38;2.80;;;7.00;99.90;;;;;;4943581;28;20778;-95
2022/01/22 04:24:53;;;;;;;8.05;2.45;;;7.00;99.90;;;;;;4935854;28;20049;-93
2022/01/22 04:27:32;;;;;;;10.15;2.45;;;6.90;99.90;;;;;;4944472;28;20424;-96
2022/01/22 04:30:18;;;;;;;10.40;2.55;;;7.00;99.90;;;;;;4922404;28;20112;-94
2022/01/22 04:32:44;;;;;;;11.90;2.67;;;7.00;99.90;;;;;;4942640;28;20197;-95
2022/01/22 04:35:26;;;;;;;;;;;;;;;;;;;;;
2022/01/22 04:42:07;;;;;;;11.88;2.63;;;7.00;99.90;;;;;;4927024;28;20049;-96
2022/01/22 04:59:02;;;;;;;11.13;2.83;;;7.00;99.90;;;;;;4891684;28;20413;-94
2022/01/22 05:02:14;;;;;;;;;;;;;;;;;;;;;
2022/01/22 05:04:54;;;;;;;8.32;2.50;;;7.00;99.90;;;;;;4961458;28;20110;-95
2022/01/22 05:07:20;;;;;;;7.53;2.28;;;7.00;99.90;;;;;;4946701;28;20343;-95
2022/01/22 05:16:27;;;;;;;8.45;2.17;;;7.00;99.90;;;;;;4902149;28;19926;-95
2022/01/22 05:19:05;;;;;;;7.72;2.83;;;6.90;99.90;;;;;;4947110;28;20405;-93
2022/01/22 05:21:44;;;;;;;9.07;2.40;;;7.00;99.90;;;;;;4944347;28;20465;-95
2022/01/22 05:31:04;;;;;;;6.97;2.20;;;7.00;99.90;;;;;;4952205;28;20053;-95
2022/01/22 05:39:21;;;;;;;9.35;2.13;;;6.90;99.90;;;;;;4939235;28;21142;-95
2022/01/22 05:42:11;;;;;;;7.78;2.40;;;6.90;99.90;;;;;;4942989;28;20049;-95
2022/01/22 05:45:06;;;;;;;6.43;1.83;;;6.90;99.90;;;;;;4956552;28;20620;-96
2022/01/22 05:47:36;;;;;;;9.02;2.60;;;6.90;99.90;;;;;;4955404;28;20392;-93
2022/01/22 05:50:26;;;;;;;8.82;2.30;;;6.90;99.90;;;;;;4974098;28;20152;-94
2022/01/22 05:53:03;;;;;;;8.50;2.08;;;7.00;99.90;;;;;;4955154;28;20041;-95
2022/01/22 06:05:22;;;;;;;7.93;2.17;;;6.90;99.90;;;;;;4951335;28;20600;-96
2022/01/22 06:08:17;;;;;;;6.80;2.22;;;6.90;99.90;;;;;;4941893;28;20041;-95
2022/01/22 06:11:06;;;;;;;;;;;;;;;;;;;;;
2022/01/22 06:13:49;;;;;;;6.50;2.47;;;6.90;99.90;;;;;;4960372;28;20227;-95
2022/01/22 06:16:38;;;;;;;7.93;3.45;;;6.90;99.90;;;;;;4945418;28;20053;-95
2022/01/22 06:19:24;;;;;;;5.88;2.30;;;6.90;99.90;;;;;;4943850;28;20133;-95
2022/01/22 06:22:08;;;;;;;7.40;2.47;;;6.90;99.90;;;;;;4896190;29;20051;-95
2022/01/22 06:25:20;;;;;;;;;;;;;;;;;;;;;
2022/01/22 06:32:16;;;;;;;9.18;3.28;;;6.90;99.90;;;;;;4786195;29;20088;-95
2022/01/22 06:35:38;;;;;;;8.88;4.03;;;6.90;99.90;;;;;;4795332;29;20068;-96
2022/01/22 06:45:45;;;;;;;;;;;;;;;;;;;;;
2022/01/22 06:53:57;;;;;;;6.88;2.20;;;6.90;99.90;;;;;;4775546;29;20057;-95
2022/01/22 06:57:19;;;;;;;8.00;2.25;;;6.90;99.90;;;;;;4776687;29;20141;-95
2022/01/22 07:00:00;;;;;;;5.85;2.28;;;6.90;99.90;;;;;;4772175;29;21169;-95
2022/01/22 07:03:30;;;;;;;5.75;2.50;;;6.90;99.90;;;;;;4858057;29;20056;-96
2022/01/22 07:06:02;;;;;;;6.97;2.58;;;6.90;99.90;;;;;;4840967;29;20248;-94
2022/01/22 07:08:41;;;;;;;8.27;2.80;;;6.90;99.90;;;;;;4859569;29;20102;-95
2022/01/22 07:11:10;;;;;;;9.23;2.60;;;6.90;99.90;;;;;;4856342;29;20059;-93
2022/01/22 07:13:45;;;;;;;6.68;2.47;;;6.90;99.90;;;;;;4857733;29;20055;-95
2022/01/22 07:16:25;;;;;;;8.85;2.58;;;6.90;99.90;;;;;;4853904;29;20414;-95
2022/01/22 07:19:21;;;;;;;8.98;3.38;;;7.00;99.90;;;;;;4891949;29;20059;-95
2022/01/22 07:22:02;;;;;;;10.20;3.38;;;7.00;99.90;;;;;;4847018;29;20449;-93
2022/01/22 07:24:36;;;;;;;10.07;3.13;;;6.90;99.90;;;;;;4859782;29;20418;-92
2022/01/22 07:27:05;;;;;;;;;;;7.00;99.90;;;;;;4858856;29;20047;-93
2022/01/22 07:29:36;;;;;;;14.93;3.80;;;6.90;99.90;;;;;;4933150;28;19932;-92
2022/01/22 07:32:05;;;;;;;11.68;3.30;;;7.00;99.90;;;;;;4934188;28;20415;-92
2022/01/22 07:34:38;;;;;;;12.40;3.08;;;7.00;99.90;;;;;;4940887;28;20231;-93
2022/01/22 07:37:16;;;;;;;;;;;;;;;;;;;;;
2022/01/22 07:39:46;;;;;;;10.32;3.20;;;7.00;99.90;;;;;;4948114;28;20572;-96
2022/01/22 07:42:14;;;;;;;12.45;3.50;;;7.00;99.90;;;;;;4948006;28;20076;-96
2022/01/22 07:44:43;;;;;;;17.80;8.77;;;7.00;99.90;;;;;;4942482;28;20628;-94
2022/01/22 07:47:42;;;;;;;;;;;;;;;;;;;;;
2022/01/22 07:50:11;;;;;;;12.05;3.63;;;7.00;99.90;;;;;;4961886;28;20088;-94
2022/01/22 07:52:57;;;;;;;17.70;7.45;;;7.00;99.90;;;;;;4949118;28;20358;-95
2022/01/22 07:55:32;;;;;;;13.00;4.95;;;7.00;99.90;;;;;;4915502;28;20400;-95
2022/01/22 08:01:44;;;;;;;9.82;3.50;;;7.00;99.90;;;;;;4925340;28;20571;-95
2022/01/22 08:04:24;;;;;;;10.95;3.55;;;7.00;99.90;;;;;;4910307;28;20751;-95
2022/01/22 08:07:01;;;;;;;10.65;3.58;;;7.10;99.90;;;;;;4892934;28;20074;-94
2022/01/22 08:09:32;;;;;;;10.77;3.30;;;7.00;99.90;;;;;;4896310;28;20064;-92
2022/01/22 08:12:04;;;;;;;8.73;2.80;;;7.00;99.90;;;;;;4911920;28;20117;-93
2022/01/22 08:14:30;;;;;;;7.28;2.85;;;7.00;99.90;;;;;;4916952;28;20884;-93
2022/01/22 08:17:05;;;;;;;8.40;2.70;;;7.00;99.90;;;;;;4897318;28;20054;-95
2022/01/22 08:19:38;;;;;;;9.88;3.08;;;7.10;99.90;;;;;;4912695;28;21048;-94
2022/01/22 08:22:11;;;;;;;7.82;2.70;;;7.00;99.90;;;;;;4883630;28;20078;-95
2022/01/22 08:24:53;;;;;;;8.15;2.90;;;7.10;99.90;;;;;;4902492;28;20076;-96
2022/01/22 08:29:54;;;;;;;9.93;2.67;;;7.10;99.90;;;;;;4953318;28;20752;-94
2022/01/22 08:37:57;;;;;;;7.28;2.33;;;7.10;99.90;;;;;;4876276;29;20398;-94
2022/01/22 08:40:28;;;;;;;8.82;5.38;;;7.10;99.90;;;;;;4868869;29;20598;-95
2022/01/22 08:43:06;;;;;;;;;;;;;;;;;;;;;
2022/01/22 08:45:41;;;;;;;8.85;6.57;;;7.10;99.90;;;;;;4885641;29;20488;-93
2022/01/22 08:48:10;;;;;;;10.30;5.70;;;7.10;99.90;;;;;;4933916;28;20050;-94
2022/01/22 08:53:50;;;;;;;10.40;2.70;;;7.10;99.90;;;;;;4978063;28;20096;-94
2022/01/22 08:59:12;;;;;;;8.38;2.65;;;7.20;99.90;;;;;;4943199;28;20132;-94
2022/01/22 09:01:48;;;;;;;4.45;1.58;;;7.20;99.90;;;;;;4949347;28;20333;-92
2022/01/22 09:04:25;;;;;;;4.63;1.90;;;7.20;99.90;;;;;;4939880;28;20450;-96
2022/01/22 09:06:54;;;;;;;7.32;3.33;;;7.20;99.90;;;;;;4947185;28;20049;-93
2022/01/22 09:09:20;;;;;;;8.45;3.00;;;7.20;99.90;;;;;;4941930;28;20099;-94
2022/01/22 09:11:47;;;;;;;6.90;2.88;;;7.10;99.90;;;;;;4975921;28;20872;-94
2022/01/22 09:14:15;;;;;;;6.72;1.58;;;7.10;99.90;;;;;;4943552;28;20535;-94
2022/01/22 09:16:55;;;;;;;7.40;2.47;;;7.10;99.90;;;;;;4962493;28;20976;-96
2022/01/22 09:20:05;;;;;;;7.50;2.47;;;7.10;99.90;;;;;;4951975;28;20056;-95
2022/01/22 09:23:20;;;;;;;6.93;2.30;;;7.10;99.90;;;;;;4944627;28;20136;-95
2022/01/22 09:25:58;;;;;;;7.82;2.53;;;7.20;99.90;;;;;;4925699;28;20057;-95
2022/01/22 09:28:30;;;;;;;7.20;2.00;;;7.20;99.90;;;;;;4944245;28;20046;-95
2022/01/22 09:31:39;;;;;;;9.23;3.65;;;7.20;99.90;;;;;;4919444;28;20116;-95
2022/01/22 09:34:35;;;;;;;11.90;5.90;;;7.40;99.90;;;;;;4917804;28;20100;-95
2022/01/22 09:37:12;;;;;;;7.03;2.63;;;7.50;99.90;;;;;;4955131;28;20958;-95
2022/01/22 09:40:29;;;;;;;;;;;;;;;;;;;;;
2022/01/22 09:43:35;;;;;;;7.88;2.58;;;7.50;99.90;;;;;;4957146;28;20068;-95
2022/01/22 09:53:08;;;;;;;5.32;1.85;;;7.40;99.90;;;;;;4928761;28;20684;-94
2022/01/22 09:55:42;;;;;;;7.00;2.65;;;7.40;99.90;;;;;;4951750;28;20842;-95
2022/01/22 09:58:38;;;;;;;;;;;;;;;;;;;;;
2022/01/22 10:01:28;;;;;;;10.40;2.30;;;7.40;99.90;;;;;;4918897;28;20368;-95
2022/01/22 10:04:55;;;;;;;;;;;;;;;;;;;;;
2022/01/22 10:07:53;;;;;;;10.02;2.47;;;7.50;99.90;;;;;;4894469;29;20057;-94
2022/01/22 10:10:22;;;;;;;7.68;2.67;;;7.50;99.90;;;;;;4869109;28;20093;-94
2022/01/22 10:13:36;;;;;;;12.27;2.85;;;7.50;99.90;;;;;;4945751;28;20820;-95
2022/01/22 10:16:49;;;;;;;10.48;2.72;;;7.50;99.90;;;;;;4911843;28;21006;-95
2022/01/22 10:19:38;;;;;;;5.45;2.13;;;7.50;99.90;;;;;;4897151;28;20043;-95
2022/01/22 10:23:04;;;;;;;7.70;2.60;;;7.50;99.90;;;;;;4883907;28;20249;-95
2022/01/22 10:25:39;;;;;;;7.63;2.47;;;7.50;99.90;;;;;;4898929;28;20061;-94
2022/01/22 10:28:43;;;;;;;8.07;3.10;;;7.50;99.90;;;;;;4922207;28;20045;-94
2022/01/22 10:31:22;;;;;;;7.90;2.97;;;7.60;99.90;;;;;;4922629;28;20041;-94
2022/01/22 10:34:12;;;;;;;12.68;3.58;;;7.60;99.90;;;;;;4918242;28;20034;-94
2022/01/22 10:37:13;;;;;;;9.50;3.55;;;7.60;99.90;;;;;;4925391;28;20065;-94
2022/01/22 10:39:48;;;;;;;10.63;3.83;;;7.60;99.90;;;;;;4944444;28;20042;-95
2022/01/22 10:43:19;;;;;;;11.25;3.55;;;7.60;99.90;;;;;;4939208;28;20045;-94
2022/01/22 10:49:08;;;;;;;13.50;4.90;;;7.80;99.90;;;;;;4937548;28;20132;-95
2022/01/22 10:51:55;;;;;;;15.02;3.95;;;7.80;99.90;;;;;;4934239;28;20453;-95
2022/01/22 10:54:31;;;;;;;13.43;3.50;;;8.00;99.90;;;;;;4922767;28;20774;-95
2022/01/22 10:57:15;;;;;;;11.30;3.50;;;8.00;99.90;;;;;;4932140;28;20139;-94
2022/01/22 11:00:19;;;;;;;10.23;3.35;;;7.90;99.90;;;;;;4924180;28;20073;-94
2022/01/22 11:02:50;;;;;;;12.68;3.47;;;7.90;99.90;;;;;;4961860;28;20052;-94
2022/01/22 11:05:39;;;;;;;11.70;3.80;;;7.90;99.90;;;;;;4912828;28;20496;-93
2022/01/22 11:08:20;;;;;;;9.40;3.67;;;7.90;99.90;;;;;;4936460;28;20053;-94
2022/01/22 11:10:58;;;;;;;9.93;3.10;;;8.00;99.90;;;;;;4959224;28;20046;-95
2022/01/22 11:13:27;;;;;;;10.90;3.30;;;7.90;99.90;;;;;;4929465;28;20037;-94
2022/01/22 11:15:56;;;;;;;9.18;3.15;;;7.90;99.90;;;;;;4912532;28;20037;-94
2022/01/22 11:18:23;;;;;;;9.25;3.08;;;7.90;99.90;;;;;;4924290;28;20655;-92
2022/01/22 11:20:57;;;;;;;10.82;3.17;;;7.90;99.90;;;;;;4905318;28;20050;-95
2022/01/22 11:23:34;;;;;;;11.10;3.47;;;7.90;99.90;;;;;;4932950;28;20554;-94
2022/01/22 11:26:23;;;;;;;8.63;3.55;;;7.90;99.90;;;;;;4947587;28;20398;-96
2022/01/22 11:28:57;;;;;;;10.20;2.85;;;7.90;99.90;;;;;;4925745;28;20049;-94
2022/01/22 11:31:42;;;;;;;8.35;3.05;;;7.90;99.90;;;;;;4960444;28;20046;-92
2022/01/22 11:34:08;;;;;;;9.65;3.10;;;8.00;99.90;;;;;;4912018;28;20132;-89
2022/01/22 11:36:43;;;;;;;10.52;3.10;;;8.00;99.90;;;;;;4936185;28;20185;-92
2022/01/22 11:39:17;;;;;;;14.15;4.00;;;7.90;99.90;;;;;;4933499;28;20046;-93
2022/01/22 11:42:03;;;;;;;9.07;3.22;;;8.00;99.90;;;;;;4952138;28;20815;-94
2022/01/22 11:44:40;;;;;;;10.02;3.13;;;8.00;99.90;;;;;;4931091;28;20033;-94
2022/01/22 11:47:25;;;;;;;11.90;3.83;;;8.10;99.90;;;;;;4943096;28;20890;-95
2022/01/22 11:50:59;;;;;;;12.13;3.80;;;8.00;99.90;;;;;;4915806;28;20053;-94
2022/01/22 11:56:43;;;;;;;12.18;3.65;;;8.00;99.90;;;;;;4906251;28;20069;-92
2022/01/22 11:59:15;;;;;;;11.35;3.47;;;8.00;99.90;;;;;;4938128;28;20073;-92
2022/01/22 12:05:03;;;;;;;12.45;4.20;;;7.90;99.90;;;;;;4949448;28;20209;-94
2022/01/22 12:08:04;;;;;;;14.43;4.00;;;8.00;99.90;;;;;;4980230;28;20060;-94
2022/01/22 12:10:40;;;;;;;12.68;4.15;;;8.00;99.90;;;;;;4957964;28;20394;-91
2022/01/22 12:17:04;;;;;;;;;;;;;;;;;;;;;
2022/01/22 12:22:43;;;;;;;12.77;4.50;;;7.80;99.90;;;;;;4931812;28;20429;-93
2022/01/22 12:25:18;;;;;;;16.73;5.20;;;7.70;99.90;;;;;;4952311;28;20317;-94
2022/01/22 12:27:48;;;;;;;16.27;6.00;;;7.70;99.90;;;;;;4937364;28;20045;-92
2022/01/22 12:30:33;;;;;;;16.65;5.75;;;7.70;99.90;;;;;;4937788;28;20901;-92
2022/01/22 12:33:00;;;;;;;16.48;5.30;;;7.70;99.90;;;;;;4938883;28;20038;-93
2022/01/22 12:35:46;;;;;;;20.25;6.00;;;7.70;99.90;;;;;;4952551;28;20210;-92
2022/01/22 12:38:44;;;;;;;12.80;5.68;;;7.70;99.90;;;;;;4934548;28;20068;-93
2022/01/22 12:41:46;;;;;;;16.35;6.30;;;7.60;99.90;;;;;;4942144;28;20049;-91
2022/01/22 12:44:28;;;;;;;16.92;6.40;;;7.60;99.90;;;;;;4936147;28;20135;-92
2022/01/22 12:47:13;;;;;;;18.45;7.20;;;7.50;99.90;;;;;;4929731;28;20893;-90
2022/01/22 12:49:44;;;;;;;16.27;7.05;;;7.60;99.90;;;;;;4921730;28;20041;-91
2022/01/22 12:52:13;;;;;;;20.55;7.70;;;7.50;99.90;;;;;;4914342;28;20839;-91
2022/01/22 12:54:44;;;;;;;17.50;7.20;;;7.50;99.90;;;;;;4933562;28;20053;-90
2022/01/22 12:57:14;;;;;;;20.67;7.57;;;7.60;99.90;;;;;;4937982;28;20045;-90
2022/01/22 13:00:01;;;;;;;19.23;7.68;;;7.50;99.90;;;;;;4941836;28;20696;-90
2022/01/22 13:03:08;;;;;;;17.90;8.20;;;7.60;99.90;;;;;;4942181;28;20398;-91
2022/01/22 13:05:52;;;;;;;21.95;9.02;;;7.50;99.90;;;;;;4879505;28;20042;-92
2022/01/22 13:08:30;;;;;;;23.90;8.48;;;7.50;99.90;;;;;;4933281;28;20581;-92
2022/01/22 13:11:00;;;;;;;18.77;8.82;;;7.50;99.90;;;;;;4975920;28;20398;-91
2022/01/22 13:13:29;;;;;;;27.45;10.23;;;7.50;99.90;;;;;;4944611;28;21332;-91
2022/01/22 13:16:30;;;;;;;16.45;9.15;;;7.50;99.90;;;;;;4925198;28;20850;-91
2022/01/22 13:19:08;;;;;;;23.30;9.67;;;7.50;99.90;;;;;;4951605;28;20343;-92
2022/01/22 13:21:47;;;;;;;21.70;9.25;;;7.50;99.90;;;;;;4937580;28;20042;-92
2022/01/22 13:24:13;;;;;;;22.02;9.23;;;7.50;99.90;;;;;;4940604;28;20069;-92
2022/01/22 13:26:39;;;;;;;20.50;9.27;;;7.50;99.90;;;;;;4925760;28;20060;-91
2022/01/22 13:29:24;;;;;;;19.33;8.85;;;7.50;99.90;;;;;;4936268;28;20362;-91
2022/01/22 13:32:01;;;;;;;20.65;8.57;;;7.50;99.90;;;;;;4943793;28;20316;-88
2022/01/22 13:34:43;;;;;;;20.05;8.13;;;7.50;99.90;;;;;;4946974;28;20546;-92
2022/01/22 13:47:59;;;;;;;15.30;6.38;;;7.60;99.90;;;;;;4938220;28;20053;-89
2022/01/22 13:50:33;;;;;;;16.02;6.55;;;7.60;99.90;;;;;;4945105;28;20356;-90
2022/01/22 13:53:04;;;;;;;15.18;5.80;;;7.70;99.90;;;;;;4952958;28;20045;-89
2022/01/22 13:55:30;;;;;;;19.00;6.68;;;7.70;99.90;;;;;;4946551;28;20377;-88
2022/01/22 13:57:56;;;;;;;17.50;6.38;;;7.70;99.90;;;;;;4940369;28;20490;-89
2022/01/22 14:00:24;;;;;;;16.42;5.93;;;7.70;99.90;;;;;;4940557;28;20408;-89
2022/01/22 14:03:20;;;;;;;16.45;6.05;;;7.80;99.90;;;;;;4936428;28;20679;-92
2022/01/22 14:05:53;;;;;;;15.55;6.78;;;7.80;99.90;;;;;;4959821;28;20045;-91
2022/01/22 14:08:31;;;;;;;16.35;6.38;;;7.70;99.90;;;;;;4949879;28;20107;-89
2022/01/22 14:11:05;;;;;;;16.30;6.78;;;7.70;99.90;;;;;;4948008;28;20053;-91
2022/01/22 14:13:31;;;;;;;17.05;5.70;;;7.70;99.90;;;;;;4934785;28;20049;-90
2022/01/22 14:16:19;;;;;;;17.77;6.20;;;7.70;99.90;;;;;;4952642;28;20233;-91
2022/01/22 14:18:46;;;;;;;17.00;6.10;;;7.70;99.90;;;;;;4930005;28;20052;-91
2022/01/22 14:21:20;;;;;;;15.68;6.07;;;7.70;99.90;;;;;;4934404;28;21276;-92
2022/01/22 14:23:55;;;;;;;15.68;5.95;;;7.70;99.90;;;;;;4956236;28;20160;-89
2022/01/22 14:26:34;;;;;;;14.75;5.32;;;7.70;99.90;;;;;;4938472;28;20778;-90
2022/01/22 14:29:10;;;;;;;16.92;5.88;;;7.60;99.90;;;;;;4929217;28;20045;-90
2022/01/22 14:31:49;;;;;;;15.38;5.45;;;7.60;99.90;;;;;;4946633;28;20048;-90
2022/01/22 14:34:42;;;;;;;14.52;5.00;;;7.60;99.90;;;;;;4962229;28;20076;-90
2022/01/22 14:37:25;;;;;;;15.18;5.03;;;7.60;99.90;;;;;;4941591;28;20453;-91
2022/01/22 14:45:32;;;;;;;16.40;4.28;;;7.60;99.90;;;;;;4954256;28;20391;-89
2022/01/22 14:48:01;;;;;;;12.93;3.53;;;7.50;99.90;;;;;;4938247;28;20049;-90
2022/01/22 14:50:31;;;;;;;14.50;3.63;;;7.50;99.90;;;;;;4947395;28;20474;-91
2022/01/22 14:52:59;;;;;;;14.80;3.53;;;7.50;99.90;;;;;;4939834;28;20121;-92
2022/01/22 14:55:27;;;;;;;11.73;3.40;;;7.40;99.90;;;;;;4951428;28;20473;-90
2022/01/22 14:57:56;;;;;;;10.63;3.10;;;7.40;99.90;;;;;;4936103;28;20049;-94
2022/01/22 15:00:22;;;;;;;14.95;3.70;;;7.40;99.90;;;;;;4954720;28;20053;-89
2022/01/22 15:02:51;;;;;;;38.17;4.75;;;7.40;99.90;;;;;;4942637;28;20058;-93
2022/01/22 15:05:22;;;;;;;13.95;3.30;;;7.40;99.90;;;;;;4936461;28;20304;-90
2022/01/22 15:07:48;;;;;;;11.52;3.20;;;7.40;99.90;;;;;;4927274;28;20479;-92
2022/01/22 15:10:18;;;;;;;13.55;3.70;;;7.40;99.90;;;;;;4930844;28;20068;-91
2022/01/22 15:12:45;;;;;;;15.32;3.22;;;7.30;99.90;;;;;;4948070;28;20034;-91
2022/01/22 15:15:18;;;;;;;11.38;3.50;;;7.40;99.90;;;;;;4921373;28;20107;-92
2022/01/22 15:20:20;;;;;;;13.93;3.60;;;7.30;99.90;;;;;;4943464;28;20054;-95
2022/01/22 15:22:55;;;;;;;12.93;3.30;;;7.40;99.90;;;;;;4928873;28;20514;-93
2022/01/22 15:25:30;;;;;;;15.93;3.30;;;7.40;99.90;;;;;;4921154;28;20403;-95
2022/01/22 15:27:59;;;;;;;11.00;3.00;;;7.30;99.90;;;;;;4927406;28;20092;-92
2022/01/22 15:30:34;;;;;;;22.52;3.40;;;7.30;99.90;;;;;;4912083;28;20054;-91
2022/01/22 15:35:49;;;;;;;13.77;3.53;;;7.30;99.90;;;;;;4916952;28;20042;-92
2022/01/22 15:38:18;;;;;;;13.90;3.92;;;7.30;99.90;;;;;;4890330;28;20050;-90
2022/01/22 15:40:45;;;;;;;13.70;3.80;;;7.20;99.90;;;;;;4878517;28;20042;-91
2022/01/22 15:46:13;;;;;;;19.63;4.07;;;7.20;99.90;;;;;;4907506;28;20081;-92
2022/01/22 15:48:43;;;;;;;15.35;4.07;;;7.20;99.90;;;;;;4909431;28;20169;-91
2022/01/22 15:51:15;;;;;;;12.77;3.30;;;7.30;99.90;;;;;;4885414;28;20092;-92
2022/01/22 15:53:44;;;;;;;10.80;3.38;;;7.20;99.90;;;;;;4911272;28;20534;-94
2022/01/22 15:56:10;;;;;;;12.35;3.67;;;7.20;99.90;;;;;;4922035;28;20981;-91
2022/01/22 15:58:36;;;;;;;14.23;3.80;;;7.20;99.90;;;;;;4927520;28;20046;-93
2022/01/22 16:01:07;;;;;;;14.38;3.20;;;7.20;99.90;;;;;;4940971;28;20179;-92
2022/01/22 16:03:41;;;;;;;10.05;3.10;;;7.20;99.90;;;;;;4944977;28;20053;-91
2022/01/22 16:06:18;;;;;;;14.15;3.45;;;7.20;99.90;;;;;;4921546;28;20412;-92
2022/01/22 16:08:46;;;;;;;12.80;3.10;;;7.10;99.90;;;;;;4929982;28;20053;-92
2022/01/22 16:11:13;;;;;;;11.95;3.20;;;7.20;99.90;;;;;;4917912;28;20370;-93
2022/01/22 16:13:42;;;;;;;11.48;3.20;;;7.10;99.90;;;;;;4919458;28;20120;-93
2022/01/22 16:16:27;;;;;;;13.98;2.88;;;7.10;99.90;;;;;;4899226;28;20066;-90
2022/01/22 16:18:53;;;;;;;10.93;2.08;;;7.10;99.90;;;;;;4919003;28;20053;-91
2022/01/22 16:21:22;;;;;;;11.98;2.88;;;7.00;99.90;;;;;;4903027;28;20050;-94
2022/01/22 16:23:50;;;;;;;11.35;2.30;;;7.00;99.90;;;;;;4908659;28;20471;-90
2022/01/22 16:26:24;;;;;;;7.72;2.00;;;7.00;99.90;;;;;;4907709;28;20062;-90
2022/01/22 16:28:50;;;;;;;8.60;2.20;;;7.00;99.90;;;;;;4905874;28;20113;-91
2022/01/22 16:31:16;;;;;;;8.60;2.00;;;7.00;99.90;;;;;;4894761;28;20058;-90
2022/01/22 16:33:43;;;;;;;9.20;2.13;;;7.00;99.90;;;;;;4925722;28;20086;-93
2022/01/22 16:36:08;;;;;;;9.15;1.92;;;7.00;99.90;;;;;;4933200;28;20096;-91
2022/01/22 16:38:34;;;;;;;10.80;1.75;;;6.90;99.90;;;;;;4914507;28;20480;-92
2022/01/22 16:41:01;;;;;;;9.18;1.98;;;6.90;99.90;;;;;;4889437;28;20054;-92
2022/01/22 16:43:34;;;;;;;6.65;1.60;;;7.00;99.90;;;;;;4906697;28;20745;-91
2022/01/22 16:52:03;;;;;;;7.88;1.80;;;6.90;99.90;;;;;;4910718;28;20464;-93
2022/01/22 16:57:11;;;;;;;;;;;6.80;99.90;;;;;;4932118;28;20515;-92
2022/01/22 16:59:42;;;;;;;11.57;2.50;;;6.80;99.90;;;;;;4911256;28;19955;-92
2022/01/22 17:02:16;;;;;;;8.90;2.00;;;6.80;99.90;;;;;;4911305;28;20045;-92
2022/01/22 17:04:45;;;;;;;11.05;2.40;;;6.90;99.90;;;;;;4914122;28;20365;-92
2022/01/22 17:15:04;;;;;;;13.27;3.63;;;6.80;99.90;;;;;;4906638;28;20057;-93
2022/01/22 17:17:30;;;;;;;13.18;3.58;;;6.80;99.90;;;;;;4906027;28;20157;-93
2022/01/22 17:19:58;;;;;;;9.02;3.42;;;6.80;99.90;;;;;;4894238;28;20192;-93
2022/01/22 17:22:24;;;;;;;10.55;3.72;;;6.80;99.90;;;;;;4907348;28;20068;-92
2022/01/22 17:24:50;;;;;;;12.43;3.78;;;6.80;99.90;;;;;;4913310;28;20050;-93
2022/01/22 17:27:19;;;;;;;14.77;4.65;;;6.80;99.90;;;;;;4958832;28;20099;-92
2022/01/22 17:29:49;;;;;;;12.10;4.50;;;6.80;99.90;;;;;;4940985;28;20576;-92
2022/01/22 17:32:17;;;;;;;15.65;4.72;;;6.80;99.90;;;;;;4947813;28;20057;-92
2022/01/22 17:34:43;;;;;;;17.52;5.38;;;6.80;99.90;;;;;;4974712;28;20832;-90
2022/01/22 17:37:12;;;;;;;15.45;5.35;;;6.80;99.90;;;;;;4960477;28;20077;-91